• Join FlightAware (Why Join?)
  • Login
  • US Flag 
04:50PM EDT


 

Airport Tracker/Info


-or-


 

Live Flight TrackerFlight Track Log ✈ RPA3108 ✈ 01-May-2013 ✈ KCHS - KPHL

Flight Track Log - Related Links

Times and Time Zones

All times are in EDT time to prevent confusion due to time zone crossing. See the RPA3108 flight status page for this flight to view local times or setup timezone preferences in your user account.

Time Position Orientation Groundspeed Altitude Reporting Facility
EDT Latitude Longitude Course Direction KTS MPH feet Rate Location/Type
06:48AM 32.9439 -79.9272 30° Northeast 214 246 5,500  Level Jacksonville Center
06:49AM 33.0721 -79.5743 54° Northeast  Level FlightAware Approximate
06:49AM 32.9711 -79.8447 69° East 243 280 9,200  Level Jacksonville Center
06:50AM 33.1353 -79.4690 54° Northeast  Level FlightAware Approximate
06:50AM 33.0086 -79.7617 62° Northeast 265 305 12,500  Level Jacksonville Center
06:51AM 33.2011 -79.3660 28° Northeast  Level FlightAware Approximate
06:51AM 33.0761 -79.7022 36° Northeast 278 320 15,300  Level Jacksonville Center
06:52AM 33.2970 -79.3050 28° Northeast  Level FlightAware Approximate
06:52AM 33.1494 -79.6350 37° Northeast 300 345 17,900  Level Jacksonville Center
06:53AM 33.3927 -79.2435 30° Northeast  Level FlightAware Approximate
06:53AM 33.2269 -79.5678 36° Northeast 326 375 20,700  Level Jacksonville Center
06:54AM 33.3064 -79.4928 38° Northeast 346 398 22,900 2,160 Climbing Jacksonville Center
06:55AM 33.3900 -79.4172 37° Northeast 360 414 25,100 1,920 Climbing Jacksonville Center
06:56AM 33.4775 -79.3392 37° Northeast 377 434 26,800 1,500 Climbing Jacksonville Center
06:57AM 33.5650 -79.2558 38° Northeast 389 448 28,200 1,560 Climbing Jacksonville Center
06:59AM 33.7258 -79.1094 37° Northeast 399 459 31,200 1,620 Climbing Washington Center
07:00AM 33.8200 -79.0261 36° Northeast 404 465 32,800 840 Climbing Washington Center
07:01AM 33.9122 -78.9372 39° Northeast 415 478 33,000 60 Climbing Washington Center
07:02AM 34.0064 -78.8533 36° Northeast 420 483 33,000  Level Washington Center
07:03AM 34.1006 -78.7669 37° Northeast 420 483 33,000  Level Washington Center
07:04AM 34.1925 -78.6825 37° Northeast 420 483 33,000  Level Washington Center
07:05AM 34.2883 -78.6031 34° Northeast 420 483 33,000  Level Washington Center
07:06AM 34.3842 -78.5261 34° Northeast 420 483 33,000  Level Washington Center
07:07AM 34.4800 -78.4489 34° Northeast 415 478 33,000  Level Washington Center
07:08AM 34.5756 -78.3742 33° Northeast 410 472 33,000  Level Washington Center
07:09AM 34.6692 -78.2992 33° Northeast 405 466 33,000  Level Washington Center
07:10AM 34.7625 -78.2264 33° Northeast 405 466 33,000  Level Washington Center
07:11AM 34.8519 -78.1483 36° Northeast 399 459 33,000  Level Washington Center
07:12AM 34.9408 -78.0775 33° Northeast 393 452 33,000  Level Washington Center
07:13AM 35.0364 -78.0019 33° Northeast 393 452 33,000  Level Washington Center
07:14AM 35.1256 -77.9283 34° Northeast 393 452 33,000  Level Washington Center
07:15AM 35.2144 -77.8572 33° Northeast 388 447 33,000  Level Washington Center
07:16AM 35.3075 -77.7861 32° Northeast 383 441 33,000  Level Washington Center
07:17AM 35.3986 -77.7119 34° Northeast 383 441 33,000  Level Washington Center
07:18AM 35.4875 -77.6378 34° Northeast 383 441 33,000  Level Washington Center
07:19AM 35.5786 -77.5636 34° Northeast 383 441 33,000  Level Washington Center
07:20AM 35.6800 -77.4817 33° Northeast 383 441 33,000  Level Washington Center
07:21AM 35.7708 -77.4069 34° Northeast 388 447 33,000  Level Washington Center
07:22AM 35.8597 -77.3347 33° Northeast 383 441 33,000  Level Washington Center
07:23AM 35.9483 -77.2650 32° Northeast 378 435 33,000  Level Washington Center
07:24AM 36.0347 -77.1897 35° Northeast 378 435 33,000 -180 Level Washington Center
07:25AM 36.1172 -77.1194 35° Northeast 378 435 32,700 -660 Descending Washington Center
07:26AM 36.2056 -77.0489 33° Northeast 373 429 31,700 -1,200 Descending Washington Center
07:27AM 36.2900 -76.9783 34° Northeast 373 429 30,400 -1,320 Descending Washington Center
07:28AM 36.3742 -76.9075 34° Northeast 373 429 29,100 -720 Descending Washington Center
07:29AM 36.4625 -76.8342 34° Northeast 373 429 29,000 -60 Descending Washington Center
07:30AM 36.5531 -76.7606 33° Northeast 378 435 29,000  Level Washington Center
07:31AM 36.6433 -76.6844 34° Northeast 383 441 29,000  Level Washington Center
07:32AM 36.7317 -76.6053 36° Northeast 383 441 29,000  Level Washington Center
07:33AM 36.8242 -76.5286 34° Northeast 383 441 29,000  Level Washington Center
07:34AM 36.9122 -76.4544 34° Northeast 383 441 29,000  Level Washington Center
07:35AM 37.0006 -76.3772 35° Northeast 383 441 29,000  Level Washington Center
07:36AM 37.0906 -76.3000 34° Northeast 383 441 29,000  Level Washington Center
07:37AM 37.1786 -76.2253 34° Northeast 378 435 29,000  Level Washington Center
07:38AM 37.2731 -76.1531 31° Northeast 378 435 29,000 -60 Level Washington Center
07:39AM 37.3608 -76.0753 35° Northeast 383 441 28,900 -600 Descending Washington Center
07:40AM 37.4489 -76.0000 34° Northeast 383 441 27,900 -1,020 Descending Washington Center
07:41AM 37.5367 -75.9219 35° Northeast 383 441 26,900 -1,020 Descending Washington Center
07:42AM 37.6181 -75.8514 34° Northeast 372 428 25,900 -960 Descending Washington Center
07:43AM 37.6994 -75.7808 34° Northeast 366 421 25,000 -1,020 Descending Washington Center
07:44AM 37.7831 -75.7075 35° Northeast 361 415 24,000 -1,320 Descending Washington Center
07:45AM 37.8686 -75.6339 34° Northeast 361 415 22,500 -1,500 Descending Washington Center
07:46AM 37.9542 -75.5603 34° Northeast 361 415 21,000 -780 Descending Washington Center
07:47AM 38.0375 -75.4889 34° Northeast 361 415 21,000  Level Washington Center
07:48AM 38.1250 -75.4256 30° Northeast 361 415 21,000  Level Washington Center
07:49AM 38.2147 -75.3672 27° Northeast 356 410 21,000  Level Washington Center
07:50AM 38.3042 -75.3086 27° Northeast 356 410 21,000 -420 Level Washington Center
07:51AM 38.3936 -75.2525 26° Northeast 351 404 20,200 -1,380 Descending Washington Center
07:52AM 38.4853 -75.1964 26° Northeast 351 404 18,300 -1,920 Descending Washington Center
07:53AM 38.5706 -75.1375 28° Northeast 351 404 16,400 -1,680 Descending Washington Center
07:54AM 38.6578 -75.0811 27° Northeast 346 398 14,900 -780 Descending Washington Center
07:55AM 38.7389 -75.0275 27° Northeast 341 392 14,900  Level Washington Center
07:56AM 38.8242 -74.9789 24° Northeast 341 392 14,900  Level Washington Center
07:57AM 38.9072 -74.9247 27° Northeast 336 387 14,900  Level Washington Center
07:58AM 38.9903 -74.8706 27° Northeast 336 387 14,900 -60 Level Washington Center
07:59AM 39.0753 -74.8136 27° Northeast 336 387 14,800 -960 Descending Washington Center
08:00AM 39.1692 -74.8258 354° North 328 377 13,000 -1,740 Descending Washington Center
08:02AM 39.3500 -74.9000 342° North 283 326 9,500 -1,380 Descending Philadelphia TRACON
08:03AM 39.4167 -74.9167 349° North 285 328 8,900 -840 Descending Philadelphia TRACON
08:04AM 39.5000 -74.9667 335° Northwest 287 330 7,800 -900 Descending Philadelphia TRACON
08:05AM 39.4833 -75.0667 258° West 268 308 7,100 -360 Descending Philadelphia TRACON
08:06AM 39.4667 -75.1500 256° West 214 246 7,100 -360 Level Philadelphia TRACON
08:07AM 39.4500 -75.2167 252° West 216 249 6,400 -540 Descending Philadelphia TRACON
08:08AM 39.4167 -75.2833 237° Southwest 217 250 6,100 -180 Descending Philadelphia TRACON
08:09AM 39.4500 -75.3167 322° Northwest 203 234 6,100  Level Philadelphia TRACON
08:10AM 39.5167 -75.3333 349° North 203 234 6,100  Level Philadelphia TRACON
08:11AM 39.5667 -75.3500 346° North 202 232 6,100  Level Philadelphia TRACON
08:12AM 39.6333 -75.3667 349° North 202 232 6,100 -60 Level Philadelphia TRACON
08:13AM 39.6667 -75.3667 360° North 199 229 6,000 -780 Descending Philadelphia TRACON
08:14AM 39.7167 -75.3833 346° North 178 205 4,800 -1,080 Descending Philadelphia TRACON
08:15AM 39.7333 -75.4333 293° West 193 222 4,100 -360 Descending Philadelphia TRACON
08:16AM 39.7167 -75.5167 255° West 191 220 4,100  Level Philadelphia TRACON
08:17AM 39.7500 -75.5500 322° Northwest 181 208 4,100  Level Philadelphia TRACON
08:18AM 39.7833 -75.5333 21° North 166 191 4,100 -480 Level Philadelphia TRACON
08:19AM 39.8167 -75.4833 49° Northeast 161 185 3,100 -720 Descending Philadelphia TRACON
08:20AM 39.8333 -75.4333 67° East 159 183 2,700 -600 Descending Philadelphia TRACON
08:21AM 39.8333 -75.3833 90° East 139 160 1,900 -720 Descending Philadelphia TRACON
08:22AM 39.8500 -75.3333 67° East 97 112 1,200 -660 Descending Philadelphia TRACON
08:23AM 39.8500 -75.3000 90° East 115 132 600 -720 Descending Philadelphia TRACON